Terminal Aerodrome Forecast
Issued by NWS

Home | Current Version | Previous Version | Text Only | Print | Product List | Glossary On
Versions: 1 2 3 4 5 6 7 8 9 10 11 12 13 14 15 16 17 18 19 20 21 22 23 24 25 26 27
000
FTUS41 KBUF 301900 AAB
TAFIAG
TAF AMD
KIAG 301953Z 3020/3118 22016G24KT P6SM VCTS SCT060CB BKN100
      TEMPO 3020/3021 -SHRA BKN060
     FM302100 21016G24KT P6SM BKN100
     FM310000 19012KT P6SM BKN100
     FM310400 19012KT P6SM VCSH BKN060
     FM310700 21012KT 4SM SHRA OVC040
     FM311000 22012KT 6SM -SHRA OVC025
     FM311500 22014G22KT P6SM BKN040=

USA.gov is the U.S. government's official web portal to all federal, state and local government web resources and services.